sensor_id;sensor_type;location;lat;lon;timestamp;P1;durP1;ratioP1;P2;durP2;ratioP2
39266;SDS011;24967;51.154;13.812;2022-08-20T00:02:19;35.90;;;26.83;;
39266;SDS011;24967;51.154;13.812;2022-08-20T00:04:46;30.25;;;25.02;;
39266;SDS011;24967;51.154;13.812;2022-08-20T00:07:12;31.73;;;24.98;;
39266;SDS011;24967;51.154;13.812;2022-08-20T00:09:39;29.30;;;23.13;;
39266;SDS011;24967;51.154;13.812;2022-08-20T00:12:07;31.45;;;23.90;;
39266;SDS011;24967;51.154;13.812;2022-08-20T00:14:37;32.85;;;25.10;;
39266;SDS011;24967;51.154;13.812;2022-08-20T00:17:04;34.53;;;25.88;;
39266;SDS011;24967;51.154;13.812;2022-08-20T00:19:31;35.58;;;25.23;;
39266;SDS011;24967;51.154;13.812;2022-08-20T00:21:57;38.88;;;27.85;;
39266;SDS011;24967;51.154;13.812;2022-08-20T00:24:24;32.22;;;25.77;;
39266;SDS011;24967;51.154;13.812;2022-08-20T00:26:50;34.63;;;26.73;;
39266;SDS011;24967;51.154;13.812;2022-08-20T00:29:17;33.90;;;24.45;;
39266;SDS011;24967;51.154;13.812;2022-08-20T00:31:45;28.95;;;22.55;;
39266;SDS011;24967;51.154;13.812;2022-08-20T00:34:11;34.75;;;25.33;;
39266;SDS011;24967;51.154;13.812;2022-08-20T00:36:38;32.40;;;25.83;;
39266;SDS011;24967;51.154;13.812;2022-08-20T00:39:04;32.38;;;24.25;;
39266;SDS011;24967;51.154;13.812;2022-08-20T00:41:30;35.40;;;25.45;;
39266;SDS011;24967;51.154;13.812;2022-08-20T00:44:04;33.75;;;25.45;;
39266;SDS011;24967;51.154;13.812;2022-08-20T00:46:33;34.00;;;24.48;;
39266;SDS011;24967;51.154;13.812;2022-08-20T00:49:01;36.92;;;25.20;;
39266;SDS011;24967;51.154;13.812;2022-08-20T00:51:32;30.88;;;24.17;;
39266;SDS011;24967;51.154;13.812;2022-08-20T00:54:06;30.40;;;23.77;;
39266;SDS011;24967;51.154;13.812;2022-08-20T00:56:36;28.63;;;22.83;;
39266;SDS011;24967;51.154;13.812;2022-08-20T00:59:05;30.15;;;23.05;;
39266;SDS011;24967;51.154;13.812;2022-08-20T01:01:35;33.97;;;22.95;;
39266;SDS011;24967;51.154;13.812;2022-08-20T01:04:03;31.98;;;23.40;;
39266;SDS011;24967;51.154;13.812;2022-08-20T01:06:30;30.73;;;23.15;;
39266;SDS011;24967;51.154;13.812;2022-08-20T01:08:57;34.25;;;25.33;;
39266;SDS011;24967;51.154;13.812;2022-08-20T01:11:26;33.67;;;24.48;;
39266;SDS011;24967;51.154;13.812;2022-08-20T01:13:57;28.88;;;22.90;;
39266;SDS011;24967;51.154;13.812;2022-08-20T01:16:26;31.13;;;22.98;;
39266;SDS011;24967;51.154;13.812;2022-08-20T01:18:56;28.08;;;22.52;;
39266;SDS011;24967;51.154;13.812;2022-08-20T01:21:25;33.58;;;24.83;;
39266;SDS011;24967;51.154;13.812;2022-08-20T01:23:56;36.63;;;25.27;;
39266;SDS011;24967;51.154;13.812;2022-08-20T01:26:29;31.83;;;23.80;;
39266;SDS011;24967;51.154;13.812;2022-08-20T01:29:00;32.15;;;24.88;;
39266;SDS011;24967;51.154;13.812;2022-08-20T01:31:31;33.90;;;24.65;;
39266;SDS011;24967;51.154;13.812;2022-08-20T01:34:01;33.95;;;23.75;;
39266;SDS011;24967;51.154;13.812;2022-08-20T01:36:30;34.17;;;24.70;;
39266;SDS011;24967;51.154;13.812;2022-08-20T01:41:40;36.08;;;25.20;;
39266;SDS011;24967;51.154;13.812;2022-08-20T01:44:16;34.90;;;26.95;;
39266;SDS011;24967;51.154;13.812;2022-08-20T01:46:45;36.40;;;26.40;;
39266;SDS011;24967;51.154;13.812;2022-08-20T01:49:16;35.97;;;26.17;;
39266;SDS011;24967;51.154;13.812;2022-08-20T01:51:46;37.60;;;28.48;;
39266;SDS011;24967;51.154;13.812;2022-08-20T01:54:14;40.53;;;28.60;;
39266;SDS011;24967;51.154;13.812;2022-08-20T01:56:50;35.38;;;26.63;;
39266;SDS011;24967;51.154;13.812;2022-08-20T01:59:20;38.47;;;27.52;;
39266;SDS011;24967;51.154;13.812;2022-08-20T02:01:46;40.88;;;29.00;;
39266;SDS011;24967;51.154;13.812;2022-08-20T02:04:13;39.88;;;28.50;;
39266;SDS011;24967;51.154;13.812;2022-08-20T02:06:42;38.67;;;28.35;;
39266;SDS011;24967;51.154;13.812;2022-08-20T02:09:12;46.90;;;32.65;;
39266;SDS011;24967;51.154;13.812;2022-08-20T02:11:38;49.30;;;32.40;;
39266;SDS011;24967;51.154;13.812;2022-08-20T02:14:07;45.20;;;31.25;;
39266;SDS011;24967;51.154;13.812;2022-08-20T02:16:37;51.22;;;34.47;;
39266;SDS011;24967;51.154;13.812;2022-08-20T02:19:06;55.28;;;34.38;;
39266;SDS011;24967;51.154;13.812;2022-08-20T02:21:37;55.38;;;35.33;;
39266;SDS011;24967;51.154;13.812;2022-08-20T02:24:06;61.80;;;36.55;;
39266;SDS011;24967;51.154;13.812;2022-08-20T02:26:34;60.33;;;37.58;;
39266;SDS011;24967;51.154;13.812;2022-08-20T02:29:02;67.30;;;39.17;;
39266;SDS011;24967;51.154;13.812;2022-08-20T02:31:32;64.72;;;37.72;;
39266;SDS011;24967;51.154;13.812;2022-08-20T02:34:00;63.72;;;37.92;;
39266;SDS011;24967;51.154;13.812;2022-08-20T02:36:27;68.00;;;38.55;;
39266;SDS011;24967;51.154;13.812;2022-08-20T02:38:53;81.15;;;43.45;;
39266;SDS011;24967;51.154;13.812;2022-08-20T02:41:20;73.75;;;41.50;;
39266;SDS011;24967;51.154;13.812;2022-08-20T02:43:46;69.13;;;40.10;;
39266;SDS011;24967;51.154;13.812;2022-08-20T02:46:13;75.68;;;41.38;;
39266;SDS011;24967;51.154;13.812;2022-08-20T02:48:42;76.47;;;40.83;;
39266;SDS011;24967;51.154;13.812;2022-08-20T02:51:08;70.50;;;39.78;;
39266;SDS011;24967;51.154;13.812;2022-08-20T02:53:35;76.53;;;41.35;;
39266;SDS011;24967;51.154;13.812;2022-08-20T02:56:03;73.15;;;39.15;;
39266;SDS011;24967;51.154;13.812;2022-08-20T02:58:30;73.00;;;39.38;;
39266;SDS011;24967;51.154;13.812;2022-08-20T03:00:57;73.50;;;39.35;;
39266;SDS011;24967;51.154;13.812;2022-08-20T03:03:24;71.85;;;38.88;;
39266;SDS011;24967;51.154;13.812;2022-08-20T03:05:53;73.00;;;39.33;;
39266;SDS011;24967;51.154;13.812;2022-08-20T03:08:21;70.35;;;38.10;;
39266;SDS011;24967;51.154;13.812;2022-08-20T03:10:52;80.20;;;39.75;;
39266;SDS011;24967;51.154;13.812;2022-08-20T03:13:19;72.80;;;37.90;;
39266;SDS011;24967;51.154;13.812;2022-08-20T03:15:47;66.68;;;36.25;;
39266;SDS011;24967;51.154;13.812;2022-08-20T03:18:16;70.97;;;38.50;;
39266;SDS011;24967;51.154;13.812;2022-08-20T03:20:44;67.63;;;35.45;;
39266;SDS011;24967;51.154;13.812;2022-08-20T03:23:12;73.25;;;37.60;;
39266;SDS011;24967;51.154;13.812;2022-08-20T03:25:40;75.40;;;37.55;;
39266;SDS011;24967;51.154;13.812;2022-08-20T03:28:07;63.83;;;34.33;;
39266;SDS011;24967;51.154;13.812;2022-08-20T03:30:34;67.10;;;36.60;;
39266;SDS011;24967;51.154;13.812;2022-08-20T03:33:00;73.38;;;36.10;;
39266;SDS011;24967;51.154;13.812;2022-08-20T03:35:28;67.22;;;35.72;;
39266;SDS011;24967;51.154;13.812;2022-08-20T03:37:56;64.30;;;33.08;;
39266;SDS011;24967;51.154;13.812;2022-08-20T03:40:26;59.78;;;31.60;;
39266;SDS011;24967;51.154;13.812;2022-08-20T03:42:55;63.10;;;31.27;;
39266;SDS011;24967;51.154;13.812;2022-08-20T03:45:23;57.00;;;29.77;;
39266;SDS011;24967;51.154;13.812;2022-08-20T03:47:51;57.17;;;29.10;;
39266;SDS011;24967;51.154;13.812;2022-08-20T03:50:19;49.28;;;25.73;;
39266;SDS011;24967;51.154;13.812;2022-08-20T03:52:48;48.63;;;26.17;;
39266;SDS011;24967;51.154;13.812;2022-08-20T03:55:15;46.70;;;24.85;;
39266;SDS011;24967;51.154;13.812;2022-08-20T03:57:50;48.58;;;25.05;;
39266;SDS011;24967;51.154;13.812;2022-08-20T04:00:19;43.03;;;22.80;;
39266;SDS011;24967;51.154;13.812;2022-08-20T04:02:47;32.40;;;18.17;;
39266;SDS011;24967;51.154;13.812;2022-08-20T04:05:14;32.50;;;15.75;;
39266;SDS011;24967;51.154;13.812;2022-08-20T04:07:40;23.73;;;13.57;;
39266;SDS011;24967;51.154;13.812;2022-08-20T04:10:09;20.77;;;12.98;;
39266;SDS011;24967;51.154;13.812;2022-08-20T04:12:37;17.92;;;11.65;;
39266;SDS011;24967;51.154;13.812;2022-08-20T04:15:07;11.88;;;8.48;;
39266;SDS011;24967;51.154;13.812;2022-08-20T04:17:35;13.63;;;8.63;;
39266;SDS011;24967;51.154;13.812;2022-08-20T04:20:02;11.27;;;8.35;;
39266;SDS011;24967;51.154;13.812;2022-08-20T04:22:30;13.93;;;9.20;;
39266;SDS011;24967;51.154;13.812;2022-08-20T04:24:57;12.60;;;9.38;;
39266;SDS011;24967;51.154;13.812;2022-08-20T04:27:23;13.00;;;8.85;;
39266;SDS011;24967;51.154;13.812;2022-08-20T04:29:49;16.33;;;10.70;;
39266;SDS011;24967;51.154;13.812;2022-08-20T04:32:17;16.55;;;10.80;;
39266;SDS011;24967;51.154;13.812;2022-08-20T04:34:45;18.48;;;11.50;;
39266;SDS011;24967;51.154;13.812;2022-08-20T04:37:11;15.35;;;10.25;;
39266;SDS011;24967;51.154;13.812;2022-08-20T04:39:38;18.38;;;10.52;;
39266;SDS011;24967;51.154;13.812;2022-08-20T04:42:04;17.38;;;10.13;;
39266;SDS011;24967;51.154;13.812;2022-08-20T04:44:31;17.70;;;9.13;;
39266;SDS011;24967;51.154;13.812;2022-08-20T04:46:57;18.63;;;10.38;;
39266;SDS011;24967;51.154;13.812;2022-08-20T04:49:25;16.30;;;9.00;;
39266;SDS011;24967;51.154;13.812;2022-08-20T04:51:51;19.58;;;10.05;;
39266;SDS011;24967;51.154;13.812;2022-08-20T04:54:18;15.27;;;9.63;;
39266;SDS011;24967;51.154;13.812;2022-08-20T04:56:45;19.63;;;9.68;;
39266;SDS011;24967;51.154;13.812;2022-08-20T04:59:12;17.20;;;10.20;;
39266;SDS011;24967;51.154;13.812;2022-08-20T05:01:39;20.05;;;10.38;;
39266;SDS011;24967;51.154;13.812;2022-08-20T05:04:05;19.77;;;10.73;;
39266;SDS011;24967;51.154;13.812;2022-08-20T05:06:33;23.67;;;11.55;;
39266;SDS011;24967;51.154;13.812;2022-08-20T05:08:59;24.52;;;11.98;;
39266;SDS011;24967;51.154;13.812;2022-08-20T05:11:26;25.92;;;12.77;;
39266;SDS011;24967;51.154;13.812;2022-08-20T05:13:53;25.23;;;12.52;;
39266;SDS011;24967;51.154;13.812;2022-08-20T05:16:20;31.73;;;13.73;;
39266;SDS011;24967;51.154;13.812;2022-08-20T05:18:48;33.15;;;13.82;;
39266;SDS011;24967;51.154;13.812;2022-08-20T05:21:16;29.25;;;14.30;;
39266;SDS011;24967;51.154;13.812;2022-08-20T05:23:44;31.95;;;14.80;;
39266;SDS011;24967;51.154;13.812;2022-08-20T05:26:10;31.85;;;14.30;;
39266;SDS011;24967;51.154;13.812;2022-08-20T05:28:37;34.38;;;15.35;;
39266;SDS011;24967;51.154;13.812;2022-08-20T05:31:05;40.15;;;15.50;;
39266;SDS011;24967;51.154;13.812;2022-08-20T05:33:33;45.80;;;17.10;;
39266;SDS011;24967;51.154;13.812;2022-08-20T05:36:02;41.03;;;17.17;;
39266;SDS011;24967;51.154;13.812;2022-08-20T05:38:30;45.53;;;17.45;;
39266;SDS011;24967;51.154;13.812;2022-08-20T05:41:00;40.85;;;17.17;;
39266;SDS011;24967;51.154;13.812;2022-08-20T05:43:26;33.65;;;16.38;;
39266;SDS011;24967;51.154;13.812;2022-08-20T05:45:53;46.88;;;20.38;;
39266;SDS011;24967;51.154;13.812;2022-08-20T05:48:20;49.70;;;21.02;;
39266;SDS011;24967;51.154;13.812;2022-08-20T05:50:49;43.03;;;20.70;;
39266;SDS011;24967;51.154;13.812;2022-08-20T05:53:18;50.17;;;22.70;;
39266;SDS011;24967;51.154;13.812;2022-08-20T05:55:45;69.25;;;27.23;;
39266;SDS011;24967;51.154;13.812;2022-08-20T05:58:15;57.20;;;26.30;;
39266;SDS011;24967;51.154;13.812;2022-08-20T06:00:44;61.03;;;26.75;;
39266;SDS011;24967;51.154;13.812;2022-08-20T06:03:12;70.45;;;28.00;;
39266;SDS011;24967;51.154;13.812;2022-08-20T06:05:56;78.88;;;31.42;;
39266;SDS011;24967;51.154;13.812;2022-08-20T06:08:23;71.93;;;31.17;;
39266;SDS011;24967;51.154;13.812;2022-08-20T06:10:49;88.72;;;32.40;;
39266;SDS011;24967;51.154;13.812;2022-08-20T06:13:17;93.18;;;36.10;;
39266;SDS011;24967;51.154;13.812;2022-08-20T06:15:43;96.85;;;37.00;;
39266;SDS011;24967;51.154;13.812;2022-08-20T06:18:10;90.70;;;38.22;;
39266;SDS011;24967;51.154;13.812;2022-08-20T06:20:37;94.60;;;39.13;;
39266;SDS011;24967;51.154;13.812;2022-08-20T06:23:03;97.38;;;41.45;;
39266;SDS011;24967;51.154;13.812;2022-08-20T06:25:30;101.90;;;41.95;;
39266;SDS011;24967;51.154;13.812;2022-08-20T06:27:57;102.78;;;42.30;;
39266;SDS011;24967;51.154;13.812;2022-08-20T06:30:25;100.75;;;41.90;;
39266;SDS011;24967;51.154;13.812;2022-08-20T06:32:52;99.28;;;42.28;;
39266;SDS011;24967;51.154;13.812;2022-08-20T06:35:18;112.57;;;44.90;;
39266;SDS011;24967;51.154;13.812;2022-08-20T06:37:47;102.85;;;42.63;;
39266;SDS011;24967;51.154;13.812;2022-08-20T06:40:15;107.07;;;43.50;;
39266;SDS011;24967;51.154;13.812;2022-08-20T06:42:43;110.15;;;43.00;;
39266;SDS011;24967;51.154;13.812;2022-08-20T06:45:10;108.40;;;44.00;;
39266;SDS011;24967;51.154;13.812;2022-08-20T06:47:40;102.75;;;42.75;;
39266;SDS011;24967;51.154;13.812;2022-08-20T06:50:08;115.72;;;42.70;;
39266;SDS011;24967;51.154;13.812;2022-08-20T06:52:37;110.28;;;43.15;;
39266;SDS011;24967;51.154;13.812;2022-08-20T06:55:05;110.60;;;43.22;;
39266;SDS011;24967;51.154;13.812;2022-08-20T06:57:33;102.78;;;42.65;;
39266;SDS011;24967;51.154;13.812;2022-08-20T06:59:59;109.32;;;44.70;;
39266;SDS011;24967;51.154;13.812;2022-08-20T07:02:26;107.68;;;42.83;;
39266;SDS011;24967;51.154;13.812;2022-08-20T07:04:54;111.28;;;44.53;;
39266;SDS011;24967;51.154;13.812;2022-08-20T07:07:20;113.85;;;44.30;;
39266;SDS011;24967;51.154;13.812;2022-08-20T07:09:47;107.07;;;44.53;;
39266;SDS011;24967;51.154;13.812;2022-08-20T07:12:13;119.32;;;46.28;;
39266;SDS011;24967;51.154;13.812;2022-08-20T07:14:40;111.43;;;45.60;;
39266;SDS011;24967;51.154;13.812;2022-08-20T07:17:06;120.13;;;47.17;;
39266;SDS011;24967;51.154;13.812;2022-08-20T07:19:32;106.85;;;45.28;;
39266;SDS011;24967;51.154;13.812;2022-08-20T07:22:02;115.47;;;46.72;;
39266;SDS011;24967;51.154;13.812;2022-08-20T07:24:29;116.60;;;46.38;;
39266;SDS011;24967;51.154;13.812;2022-08-20T07:26:55;111.53;;;46.00;;
39266;SDS011;24967;51.154;13.812;2022-08-20T07:29:22;105.97;;;46.53;;
39266;SDS011;24967;51.154;13.812;2022-08-20T07:32:09;109.40;;;45.13;;
39266;SDS011;24967;51.154;13.812;2022-08-20T07:34:52;109.35;;;45.55;;
39266;SDS011;24967;51.154;13.812;2022-08-20T07:37:20;104.78;;;43.33;;
39266;SDS011;24967;51.154;13.812;2022-08-20T07:39:47;111.82;;;45.50;;
39266;SDS011;24967;51.154;13.812;2022-08-20T07:42:14;101.32;;;43.97;;
39266;SDS011;24967;51.154;13.812;2022-08-20T07:44:41;103.43;;;44.60;;
39266;SDS011;24967;51.154;13.812;2022-08-20T07:47:07;97.57;;;44.65;;
39266;SDS011;24967;51.154;13.812;2022-08-20T07:49:35;101.93;;;45.08;;
39266;SDS011;24967;51.154;13.812;2022-08-20T07:52:03;104.00;;;44.85;;
39266;SDS011;24967;51.154;13.812;2022-08-20T07:54:31;95.22;;;44.10;;
39266;SDS011;24967;51.154;13.812;2022-08-20T07:56:59;100.22;;;43.83;;
39266;SDS011;24967;51.154;13.812;2022-08-20T07:59:27;106.85;;;46.42;;
39266;SDS011;24967;51.154;13.812;2022-08-20T08:01:54;105.63;;;45.13;;
39266;SDS011;24967;51.154;13.812;2022-08-20T08:04:21;97.53;;;46.88;;
39266;SDS011;24967;51.154;13.812;2022-08-20T08:06:48;99.55;;;45.95;;
39266;SDS011;24967;51.154;13.812;2022-08-20T08:09:15;95.05;;;46.30;;
39266;SDS011;24967;51.154;13.812;2022-08-20T08:11:44;99.30;;;45.83;;
39266;SDS011;24967;51.154;13.812;2022-08-20T08:14:15;102.05;;;47.75;;
39266;SDS011;24967;51.154;13.812;2022-08-20T08:16:47;104.35;;;48.20;;
39266;SDS011;24967;51.154;13.812;2022-08-20T08:19:14;105.32;;;47.42;;
39266;SDS011;24967;51.154;13.812;2022-08-20T08:21:43;113.07;;;50.60;;
39266;SDS011;24967;51.154;13.812;2022-08-20T08:24:10;107.82;;;51.13;;
39266;SDS011;24967;51.154;13.812;2022-08-20T08:26:37;110.72;;;52.88;;
39266;SDS011;24967;51.154;13.812;2022-08-20T08:29:05;108.80;;;51.75;;
39266;SDS011;24967;51.154;13.812;2022-08-20T08:31:32;106.65;;;49.70;;
39266;SDS011;24967;51.154;13.812;2022-08-20T08:33:59;106.15;;;49.95;;
39266;SDS011;24967;51.154;13.812;2022-08-20T08:36:26;92.57;;;48.17;;
39266;SDS011;24967;51.154;13.812;2022-08-20T08:38:52;96.70;;;48.42;;
39266;SDS011;24967;51.154;13.812;2022-08-20T08:41:23;95.00;;;48.30;;
39266;SDS011;24967;51.154;13.812;2022-08-20T08:43:57;97.70;;;49.30;;
39266;SDS011;24967;51.154;13.812;2022-08-20T08:46:30;97.13;;;48.28;;
39266;SDS011;24967;51.154;13.812;2022-08-20T08:49:00;100.75;;;49.15;;
39266;SDS011;24967;51.154;13.812;2022-08-20T08:51:29;92.13;;;46.60;;
39266;SDS011;24967;51.154;13.812;2022-08-20T08:54:00;94.93;;;47.55;;
39266;SDS011;24967;51.154;13.812;2022-08-20T08:56:28;101.30;;;51.88;;
39266;SDS011;24967;51.154;13.812;2022-08-20T08:58:56;96.22;;;50.47;;
39266;SDS011;24967;51.154;13.812;2022-08-20T09:01:30;96.22;;;50.92;;
39266;SDS011;24967;51.154;13.812;2022-08-20T09:04:00;112.60;;;63.15;;
39266;SDS011;24967;51.154;13.812;2022-08-20T09:06:30;102.53;;;51.28;;
39266;SDS011;24967;51.154;13.812;2022-08-20T09:08:58;98.72;;;52.65;;
39266;SDS011;24967;51.154;13.812;2022-08-20T09:11:26;109.00;;;67.20;;
39266;SDS011;24967;51.154;13.812;2022-08-20T09:13:54;97.75;;;51.85;;
39266;SDS011;24967;51.154;13.812;2022-08-20T09:16:21;96.78;;;52.67;;
39266;SDS011;24967;51.154;13.812;2022-08-20T09:18:50;98.90;;;52.30;;
39266;SDS011;24967;51.154;13.812;2022-08-20T09:21:17;99.07;;;53.22;;
39266;SDS011;24967;51.154;13.812;2022-08-20T09:23:44;100.20;;;52.03;;
39266;SDS011;24967;51.154;13.812;2022-08-20T09:26:11;96.55;;;50.30;;
39266;SDS011;24967;51.154;13.812;2022-08-20T09:28:37;98.82;;;51.83;;
39266;SDS011;24967;51.154;13.812;2022-08-20T09:31:04;98.80;;;52.67;;
39266;SDS011;24967;51.154;13.812;2022-08-20T09:33:30;92.13;;;53.53;;
39266;SDS011;24967;51.154;13.812;2022-08-20T09:35:58;96.75;;;54.63;;
39266;SDS011;24967;51.154;13.812;2022-08-20T09:38:25;104.65;;;54.35;;
39266;SDS011;24967;51.154;13.812;2022-08-20T09:40:51;106.43;;;53.45;;
39266;SDS011;24967;51.154;13.812;2022-08-20T09:43:18;118.38;;;58.05;;
39266;SDS011;24967;51.154;13.812;2022-08-20T09:45:44;124.03;;;56.92;;
39266;SDS011;24967;51.154;13.812;2022-08-20T09:48:11;113.35;;;54.80;;
39266;SDS011;24967;51.154;13.812;2022-08-20T09:50:38;118.78;;;56.78;;
39266;SDS011;24967;51.154;13.812;2022-08-20T09:53:10;123.70;;;57.13;;
39266;SDS011;24967;51.154;13.812;2022-08-20T09:55:38;129.85;;;59.08;;
39266;SDS011;24967;51.154;13.812;2022-08-20T09:58:07;116.75;;;55.72;;
39266;SDS011;24967;51.154;13.812;2022-08-20T10:00:44;123.05;;;57.22;;
39266;SDS011;24967;51.154;13.812;2022-08-20T10:03:10;134.00;;;59.45;;
39266;SDS011;24967;51.154;13.812;2022-08-20T10:05:37;115.85;;;54.75;;
39266;SDS011;24967;51.154;13.812;2022-08-20T10:08:04;122.72;;;58.63;;
39266;SDS011;24967;51.154;13.812;2022-08-20T10:10:32;121.38;;;55.35;;
39266;SDS011;24967;51.154;13.812;2022-08-20T10:12:58;105.75;;;54.92;;
39266;SDS011;24967;51.154;13.812;2022-08-20T10:15:26;103.50;;;53.50;;
39266;SDS011;24967;51.154;13.812;2022-08-20T10:17:53;104.88;;;53.92;;
39266;SDS011;24967;51.154;13.812;2022-08-20T10:20:21;114.82;;;55.80;;
39266;SDS011;24967;51.154;13.812;2022-08-20T10:22:48;99.82;;;52.97;;
39266;SDS011;24967;51.154;13.812;2022-08-20T10:25:15;102.00;;;52.08;;
39266;SDS011;24967;51.154;13.812;2022-08-20T10:27:43;105.95;;;54.60;;
39266;SDS011;24967;51.154;13.812;2022-08-20T10:30:10;100.75;;;53.28;;
39266;SDS011;24967;51.154;13.812;2022-08-20T10:32:37;93.88;;;50.95;;
39266;SDS011;24967;51.154;13.812;2022-08-20T10:35:03;90.40;;;51.47;;
39266;SDS011;24967;51.154;13.812;2022-08-20T10:37:30;90.68;;;50.80;;
39266;SDS011;24967;51.154;13.812;2022-08-20T10:39:58;96.55;;;54.03;;
39266;SDS011;24967;51.154;13.812;2022-08-20T10:42:25;105.72;;;62.40;;
39266;SDS011;24967;51.154;13.812;2022-08-20T10:44:53;109.53;;;70.03;;
39266;SDS011;24967;51.154;13.812;2022-08-20T10:47:21;100.53;;;61.05;;
39266;SDS011;24967;51.154;13.812;2022-08-20T10:49:50;98.63;;;55.35;;
39266;SDS011;24967;51.154;13.812;2022-08-20T10:52:17;97.45;;;57.53;;
39266;SDS011;24967;51.154;13.812;2022-08-20T10:54:44;92.47;;;54.25;;
39266;SDS011;24967;51.154;13.812;2022-08-20T10:57:12;95.03;;;55.25;;
39266;SDS011;24967;51.154;13.812;2022-08-20T10:59:41;94.50;;;59.85;;
39266;SDS011;24967;51.154;13.812;2022-08-20T11:02:09;90.75;;;53.13;;
39266;SDS011;24967;51.154;13.812;2022-08-20T11:04:36;94.97;;;55.88;;
39266;SDS011;24967;51.154;13.812;2022-08-20T11:07:12;96.82;;;55.95;;
39266;SDS011;24967;51.154;13.812;2022-08-20T11:09:42;94.05;;;54.03;;
39266;SDS011;24967;51.154;13.812;2022-08-20T11:12:10;96.25;;;56.10;;
39266;SDS011;24967;51.154;13.812;2022-08-20T11:14:37;91.38;;;52.35;;
39266;SDS011;24967;51.154;13.812;2022-08-20T11:17:04;96.78;;;57.85;;
39266;SDS011;24967;51.154;13.812;2022-08-20T11:19:32;81.50;;;51.28;;
39266;SDS011;24967;51.154;13.812;2022-08-20T11:22:03;86.78;;;53.30;;
39266;SDS011;24967;51.154;13.812;2022-08-20T11:24:29;87.22;;;56.38;;
39266;SDS011;24967;51.154;13.812;2022-08-20T11:26:56;84.15;;;51.78;;
39266;SDS011;24967;51.154;13.812;2022-08-20T11:29:22;70.93;;;47.70;;
39266;SDS011;24967;51.154;13.812;2022-08-20T11:31:49;77.00;;;48.08;;
39266;SDS011;24967;51.154;13.812;2022-08-20T11:34:16;80.20;;;51.83;;
39266;SDS011;24967;51.154;13.812;2022-08-20T11:36:43;83.75;;;51.88;;
39266;SDS011;24967;51.154;13.812;2022-08-20T11:39:11;78.25;;;52.15;;
39266;SDS011;24967;51.154;13.812;2022-08-20T11:41:38;84.20;;;52.42;;
39266;SDS011;24967;51.154;13.812;2022-08-20T11:44:05;76.93;;;47.10;;
39266;SDS011;24967;51.154;13.812;2022-08-20T11:46:31;79.82;;;50.25;;
39266;SDS011;24967;51.154;13.812;2022-08-20T11:48:58;78.85;;;50.60;;
39266;SDS011;24967;51.154;13.812;2022-08-20T11:51:25;81.78;;;48.88;;
39266;SDS011;24967;51.154;13.812;2022-08-20T11:53:53;83.45;;;49.05;;
39266;SDS011;24967;51.154;13.812;2022-08-20T11:56:19;82.25;;;50.75;;
39266;SDS011;24967;51.154;13.812;2022-08-20T11:58:46;84.97;;;51.20;;
39266;SDS011;24967;51.154;13.812;2022-08-20T12:01:12;86.28;;;51.63;;
39266;SDS011;24967;51.154;13.812;2022-08-20T12:03:39;75.25;;;47.63;;
39266;SDS011;24967;51.154;13.812;2022-08-20T12:06:05;83.93;;;53.33;;
39266;SDS011;24967;51.154;13.812;2022-08-20T12:08:32;81.30;;;52.70;;
39266;SDS011;24967;51.154;13.812;2022-08-20T12:11:00;78.15;;;49.83;;
39266;SDS011;24967;51.154;13.812;2022-08-20T12:13:29;83.10;;;51.42;;
39266;SDS011;24967;51.154;13.812;2022-08-20T12:15:57;92.07;;;55.60;;
39266;SDS011;24967;51.154;13.812;2022-08-20T12:18:24;92.45;;;55.15;;
39266;SDS011;24967;51.154;13.812;2022-08-20T12:20:51;78.22;;;51.00;;
39266;SDS011;24967;51.154;13.812;2022-08-20T12:23:17;86.40;;;51.42;;
39266;SDS011;24967;51.154;13.812;2022-08-20T12:25:44;90.35;;;52.78;;
39266;SDS011;24967;51.154;13.812;2022-08-20T12:28:12;91.38;;;53.22;;
39266;SDS011;24967;51.154;13.812;2022-08-20T12:30:39;85.65;;;51.55;;
39266;SDS011;24967;51.154;13.812;2022-08-20T12:33:06;85.90;;;49.05;;
39266;SDS011;24967;51.154;13.812;2022-08-20T12:35:33;88.40;;;51.88;;
39266;SDS011;24967;51.154;13.812;2022-08-20T12:38:00;91.32;;;51.72;;
39266;SDS011;24967;51.154;13.812;2022-08-20T12:40:28;85.50;;;51.83;;
39266;SDS011;24967;51.154;13.812;2022-08-20T12:42:54;84.13;;;51.70;;
39266;SDS011;24967;51.154;13.812;2022-08-20T12:45:22;90.18;;;53.17;;
39266;SDS011;24967;51.154;13.812;2022-08-20T12:47:48;100.32;;;52.22;;
39266;SDS011;24967;51.154;13.812;2022-08-20T12:50:16;97.03;;;54.78;;
39266;SDS011;24967;51.154;13.812;2022-08-20T12:52:44;91.63;;;52.53;;
39266;SDS011;24967;51.154;13.812;2022-08-20T12:55:14;98.45;;;53.13;;
39266;SDS011;24967;51.154;13.812;2022-08-20T12:57:43;100.80;;;54.55;;
39266;SDS011;24967;51.154;13.812;2022-08-20T13:00:13;96.88;;;52.67;;
39266;SDS011;24967;51.154;13.812;2022-08-20T13:02:44;101.78;;;54.70;;
39266;SDS011;24967;51.154;13.812;2022-08-20T13:05:12;94.35;;;52.63;;
39266;SDS011;24967;51.154;13.812;2022-08-20T13:07:40;97.53;;;53.83;;
39266;SDS011;24967;51.154;13.812;2022-08-20T13:10:08;97.55;;;53.58;;
39266;SDS011;24967;51.154;13.812;2022-08-20T13:12:36;95.10;;;52.28;;
39266;SDS011;24967;51.154;13.812;2022-08-20T13:15:03;90.57;;;51.97;;
39266;SDS011;24967;51.154;13.812;2022-08-20T13:17:30;92.32;;;52.13;;
39266;SDS011;24967;51.154;13.812;2022-08-20T13:19:58;89.82;;;50.80;;
39266;SDS011;24967;51.154;13.812;2022-08-20T13:22:24;90.88;;;52.17;;
39266;SDS011;24967;51.154;13.812;2022-08-20T13:24:51;84.80;;;50.75;;
39266;SDS011;24967;51.154;13.812;2022-08-20T13:27:17;95.28;;;52.35;;
39266;SDS011;24967;51.154;13.812;2022-08-20T13:29:46;97.32;;;53.05;;
39266;SDS011;24967;51.154;13.812;2022-08-20T13:32:13;96.93;;;53.70;;
39266;SDS011;24967;51.154;13.812;2022-08-20T13:34:40;88.97;;;49.83;;
39266;SDS011;24967;51.154;13.812;2022-08-20T13:37:11;91.00;;;51.97;;
39266;SDS011;24967;51.154;13.812;2022-08-20T13:39:38;78.00;;;47.55;;
39266;SDS011;24967;51.154;13.812;2022-08-20T13:42:06;78.00;;;46.67;;
39266;SDS011;24967;51.154;13.812;2022-08-20T13:44:33;61.20;;;41.47;;
39266;SDS011;24967;51.154;13.812;2022-08-20T13:46:59;63.03;;;40.17;;
39266;SDS011;24967;51.154;13.812;2022-08-20T13:49:26;51.83;;;36.72;;
39266;SDS011;24967;51.154;13.812;2022-08-20T13:51:52;58.28;;;37.75;;
39266;SDS011;24967;51.154;13.812;2022-08-20T13:54:20;49.80;;;33.92;;
39266;SDS011;24967;51.154;13.812;2022-08-20T13:56:47;50.30;;;35.75;;
39266;SDS011;24967;51.154;13.812;2022-08-20T13:59:14;45.38;;;34.40;;
39266;SDS011;24967;51.154;13.812;2022-08-20T14:01:40;31.02;;;25.20;;
39266;SDS011;24967;51.154;13.812;2022-08-20T14:04:07;29.65;;;24.27;;
39266;SDS011;24967;51.154;13.812;2022-08-20T14:06:34;31.17;;;25.40;;
39266;SDS011;24967;51.154;13.812;2022-08-20T14:09:00;29.15;;;24.98;;
39266;SDS011;24967;51.154;13.812;2022-08-20T14:11:28;34.03;;;26.67;;
39266;SDS011;24967;51.154;13.812;2022-08-20T14:13:54;36.63;;;31.20;;